createdAt,value
2022-12-28T00:00:41.122Z,12.70
2022-12-28T00:05:44.581Z,13.38
2022-12-28T00:11:08.525Z,12.68
2022-12-28T00:16:19.951Z,12.48
2022-12-28T00:21:23.894Z,13.07
2022-12-28T00:26:30.744Z,12.87
2022-12-28T00:31:35.087Z,13.07
2022-12-28T00:37:09.428Z,13.77
2022-12-28T00:42:03.436Z,12.73
2022-12-28T00:47:06.987Z,12.25
2022-12-28T00:52:10.504Z,13.30
2022-12-28T00:57:15.315Z,12.80
2022-12-28T01:02:18.704Z,13.35
2022-12-28T01:07:22.117Z,13.18
2022-12-28T01:12:26.899Z,12.80
2022-12-28T01:22:33.789Z,12.38
2022-12-28T01:27:38.652Z,12.55
2022-12-28T01:37:45.183Z,12.43
2022-12-28T01:42:50.130Z,11.98
2022-12-28T01:47:56.514Z,11.35
2022-12-28T01:53:03.791Z,11.02
2022-12-28T01:58:12.888Z,11.10
2022-12-28T02:03:20.203Z,12.23
2022-12-28T02:08:29.278Z,11.75
2022-12-28T02:13:34.899Z,11.68
2022-12-28T02:18:58.468Z,10.88
2022-12-28T02:24:40.600Z,11.05
2022-12-28T02:30:01.732Z,10.73
2022-12-28T02:35:13.757Z,10.68
2022-12-28T02:40:20.931Z,11.27
2022-12-28T02:45:52.915Z,10.95
2022-12-28T02:51:09.234Z,10.90
2022-12-28T02:56:24.513Z,10.88
2022-12-28T03:01:41.954Z,12.07
2022-12-28T03:07:11.370Z,9.93
2022-12-28T03:12:20.405Z,11.50
2022-12-28T03:17:44.880Z,11.10
2022-12-28T03:23:06.372Z,10.85
2022-12-28T03:28:30.174Z,12.02
2022-12-28T03:33:35.885Z,11.63
2022-12-28T03:38:48.916Z,11.93
2022-12-28T03:43:57.484Z,12.05
2022-12-28T03:49:03.192Z,13.20
2022-12-28T03:54:06.802Z,13.63
2022-12-28T03:59:10.399Z,12.85
2022-12-28T04:04:15.067Z,13.30
2022-12-28T04:09:18.727Z,13.15
2022-12-28T04:14:22.061Z,12.98
2022-12-28T04:19:27.953Z,13.27
2022-12-28T04:24:31.598Z,13.85
2022-12-28T04:29:34.945Z,13.50
2022-12-28T04:34:44.706Z,12.93
2022-12-28T04:39:54.801Z,13.25
2022-12-28T04:45:00.411Z,13.38
2022-12-28T04:50:05.492Z,13.93
2022-12-28T04:55:32.210Z,12.70
2022-12-28T05:00:33.176Z,13.60
2022-12-28T05:05:38.557Z,13.85
2022-12-28T05:10:42.026Z,13.70
2022-12-28T05:15:45.404Z,13.90
2022-12-28T05:20:50.293Z,13.50
2022-12-28T05:25:54.768Z,13.07
2022-12-28T05:31:01.247Z,13.85
2022-12-28T05:36:07.030Z,13.85
2022-12-28T05:41:14.176Z,13.85
2022-12-28T05:46:20.426Z,13.43
2022-12-28T05:51:27.467Z,13.73
2022-12-28T05:56:32.679Z,12.98
2022-12-28T06:01:38.174Z,13.07
2022-12-28T06:06:43.213Z,13.20
2022-12-28T06:11:47.046Z,14.70
2022-12-28T06:16:51.673Z,13.40
2022-12-28T06:21:56.409Z,14.43
2022-12-28T06:26:59.903Z,12.60
2022-12-28T06:32:03.290Z,12.48
2022-12-28T06:37:08.230Z,12.82
2022-12-28T06:47:14.721Z,12.55
2022-12-28T06:52:19.655Z,11.85
2022-12-28T07:02:26.338Z,12.07
2022-12-28T07:07:31.223Z,12.32
2022-12-28T07:12:36.176Z,12.50
2022-12-28T07:17:39.524Z,13.25
2022-12-28T07:22:44.657Z,12.07
2022-12-28T07:27:48.221Z,13.25
2022-12-28T07:32:51.603Z,13.18
2022-12-28T07:37:57.127Z,12.45
2022-12-28T07:43:01.792Z,13.20
2022-12-28T07:48:05.536Z,12.98
2022-12-28T07:53:10.413Z,13.10
2022-12-28T08:03:17.004Z,13.70
2022-12-28T08:08:21.794Z,14.02
2022-12-28T08:18:28.636Z,15.25
2022-12-28T08:23:34.269Z,14.10
2022-12-28T08:28:38.946Z,14.13
2022-12-28T08:33:42.581Z,14.70
2022-12-28T08:38:47.761Z,14.52
2022-12-28T08:43:51.615Z,12.88
2022-12-28T08:48:56.854Z,13.90
2022-12-28T08:54:02.677Z,13.80
2022-12-28T08:59:07.019Z,13.55
2022-12-28T09:04:15.036Z,15.10
2022-12-28T09:09:21.244Z,14.48
2022-12-28T09:14:24.942Z,13.95
2022-12-28T09:19:28.599Z,14.02
2022-12-28T09:24:33.489Z,14.65
2022-12-28T09:34:40.277Z,13.77
2022-12-28T09:39:45.409Z,14.15
2022-12-28T09:44:56.251Z,14.35
2022-12-28T09:50:09.252Z,15.95
2022-12-28T09:55:16.296Z,15.13
2022-12-28T10:00:23.169Z,16.23
2022-12-28T10:05:27.974Z,15.98
2022-12-28T10:10:33.723Z,14.85
2022-12-28T10:15:37.385Z,14.68
2022-12-28T10:20:42.276Z,16.10
2022-12-28T10:31:05.336Z,15.32
2022-12-28T10:36:14.430Z,15.43
2022-12-28T10:41:21.437Z,15.82
2022-12-28T10:46:25.855Z,16.40
2022-12-28T10:51:31.373Z,16.27
2022-12-28T10:56:49.740Z,15.82
2022-12-28T11:01:53.565Z,20.83
2022-12-28T11:07:00.372Z,14.90
2022-12-28T11:12:23.108Z,15.32
2022-12-28T11:17:28.907Z,13.85
2022-12-28T11:22:33.268Z,12.68
2022-12-28T11:27:38.452Z,10.85
2022-12-28T11:32:47.371Z,12.75
2022-12-28T11:37:52.369Z,11.43
2022-12-28T11:48:34.474Z,13.88
2022-12-28T11:53:52.096Z,10.20
2022-12-28T11:59:25.863Z,10.48
2022-12-28T12:04:41.415Z,10.85
2022-12-28T12:09:47.262Z,10.18
2022-12-28T12:14:58.693Z,10.30
2022-12-28T12:20:07.254Z,10.45
2022-12-28T12:25:21.616Z,10.18
2022-12-28T12:30:27.111Z,9.93
2022-12-28T12:35:32.527Z,11.20
2022-12-28T12:41:01.540Z,10.57
2022-12-28T12:46:51.446Z,11.38
2022-12-28T12:52:03.586Z,11.10
2022-12-28T12:57:15.585Z,10.82
2022-12-28T13:03:03.395Z,11.18
2022-12-28T13:08:08.521Z,10.98
2022-12-28T13:13:20.810Z,11.18
2022-12-28T13:23:51.328Z,11.02
2022-12-28T13:28:59.787Z,10.20
2022-12-28T13:34:06.307Z,10.07
2022-12-28T13:39:15.645Z,9.60
2022-12-28T13:44:40.954Z,10.40
2022-12-28T13:49:53.740Z,10.18
2022-12-28T13:55:02.540Z,10.25
2022-12-28T14:00:08.735Z,10.20
2022-12-28T14:05:18.778Z,10.02
2022-12-28T14:10:25.122Z,9.82
2022-12-28T14:15:28.954Z,10.15
2022-12-28T14:20:32.541Z,10.25
2022-12-28T14:25:43.378Z,8.95
2022-12-28T14:30:54.283Z,9.20
2022-12-28T14:36:01.335Z,9.15
2022-12-28T14:41:07.330Z,9.23
2022-12-28T14:46:19.208Z,9.23
2022-12-28T14:51:29.062Z,8.82
2022-12-28T14:56:36.902Z,9.57
2022-12-28T15:01:46.363Z,9.38
2022-12-28T15:06:49.833Z,9.73
2022-12-28T15:17:21.882Z,9.05
2022-12-28T15:22:25.169Z,9.07
2022-12-28T15:27:28.555Z,8.85
2022-12-28T15:32:33.567Z,8.90
2022-12-28T15:42:41.006Z,7.93
2022-12-28T15:47:46.139Z,8.53
2022-12-28T15:52:49.593Z,8.95
2022-12-28T15:57:53.160Z,9.65
2022-12-28T16:02:57.927Z,7.85
2022-12-28T16:13:04.799Z,7.45
2022-12-28T16:18:10.057Z,7.03
2022-12-28T16:23:13.443Z,6.95
2022-12-28T16:28:17.058Z,6.72
2022-12-28T16:33:22.329Z,6.60
2022-12-28T16:38:28.834Z,6.50
2022-12-28T16:43:32.283Z,5.68
2022-12-28T16:48:38.374Z,6.30
2022-12-28T16:53:42.024Z,6.47
2022-12-28T16:58:49.100Z,5.90
2022-12-28T17:03:56.278Z,6.18
2022-12-28T17:09:04.002Z,5.50
2022-12-28T17:14:09.277Z,5.97
2022-12-28T17:19:14.332Z,5.78
2022-12-28T17:24:17.778Z,5.95
2022-12-28T17:29:21.385Z,5.43
2022-12-28T17:34:26.371Z,5.38
2022-12-28T17:39:34.551Z,6.10
2022-12-28T17:44:41.394Z,6.55
2022-12-28T17:49:46.405Z,5.88
2022-12-28T17:54:50.098Z,6.05
2022-12-28T17:59:53.754Z,5.43
2022-12-28T18:04:58.622Z,6.15
2022-12-28T18:15:07.406Z,6.32
2022-12-28T18:25:16.174Z,5.43
2022-12-28T18:30:20.035Z,5.38
2022-12-28T18:35:27.025Z,5.07
2022-12-28T18:40:30.578Z,6.00
2022-12-28T18:45:34.469Z,5.47
2022-12-28T18:50:39.454Z,5.10
2022-12-28T18:55:45.591Z,4.53
2022-12-28T19:00:49.392Z,4.90
2022-12-28T19:06:02.906Z,4.40
2022-12-28T19:11:08.156Z,4.25
2022-12-28T19:21:26.198Z,4.50
2022-12-28T19:26:29.895Z,3.83
2022-12-28T19:31:33.946Z,3.83
2022-12-28T19:36:39.048Z,5.23
2022-12-28T19:41:42.745Z,4.45
2022-12-28T19:46:47.855Z,4.50
2022-12-28T19:51:52.866Z,4.40
2022-12-28T19:56:56.549Z,4.43
2022-12-28T20:02:00.219Z,4.20
2022-12-28T20:07:05.321Z,3.90
2022-12-28T20:12:08.994Z,3.83
2022-12-28T20:17:12.693Z,3.60
2022-12-28T20:22:17.845Z,3.25
2022-12-28T20:27:21.475Z,3.20
2022-12-28T20:32:24.869Z,2.90
2022-12-28T20:37:30.078Z,2.88
2022-12-28T20:42:50.909Z,2.45
2022-12-28T20:47:55.030Z,2.75
2022-12-28T20:52:59.902Z,2.63
2022-12-28T20:58:03.529Z,2.55
2022-12-28T21:03:07.229Z,2.85
2022-12-28T21:08:12.208Z,2.70
2022-12-28T21:13:15.727Z,2.58
2022-12-28T21:18:19.601Z,2.20
2022-12-28T21:23:24.840Z,2.73
2022-12-28T21:28:28.660Z,2.15
2022-12-28T21:33:32.353Z,2.58
2022-12-28T21:38:40.405Z,2.78
2022-12-28T21:43:44.585Z,2.50
2022-12-28T21:48:48.139Z,2.63
2022-12-28T21:53:53.728Z,2.58
2022-12-28T21:58:57.872Z,2.35
2022-12-28T22:04:19.114Z,2.25
2022-12-28T22:09:41.372Z,2.28
2022-12-28T22:14:44.722Z,1.92
2022-12-28T22:19:48.585Z,1.65
2022-12-28T22:24:53.492Z,1.98
2022-12-28T22:35:00.176Z,1.50
2022-12-28T22:40:06.489Z,1.60
2022-12-28T22:45:12.317Z,1.42
2022-12-28T22:55:21.600Z,1.45
2022-12-28T23:05:28.264Z,1.48
2022-12-28T23:10:33.359Z,1.50
2022-12-28T23:15:36.841Z,1.63
2022-12-28T23:20:57.626Z,1.30
2022-12-28T23:26:21.150Z,1.17
2022-12-28T23:31:24.910Z,1.30
2022-12-28T23:36:28.469Z,1.50
2022-12-28T23:41:51.525Z,1.40
2022-12-28T23:46:59.392Z,1.45
2022-12-28T23:52:03.324Z,1.30
2022-12-28T23:57:08.375Z,1.10
